Time;durP1;ratioP1;P1;durP2;ratioP2;P2;SDS_P1;SDS_P2;PMS_P1;PMS_P2;Temp;Humidity;BMP_temperature;BMP_pressure;BME280_temperature;BME280_humidity;BME280_pressure;Samples;Min_cycle;Max_cycle;Signal;HPM_P1;HPM_P2
2024/02/29 00:01:58;;;;;;;;;;;;;;;;;;5055419;28;5111;-56
2024/02/29 00:04:24;;;;;;;;;;;;;;;;;;5049059;28;4540;-56
2024/02/29 00:06:50;;;;;;;;;;;;;;;;;;5045343;28;5127;-56
2024/02/29 00:09:15;;;;;;;;;;;;;;;;;;5037173;28;4686;-57
2024/02/29 00:11:40;;;;;;;;;;;;;;;;;;5045844;28;3670;-56
2024/02/29 00:14:05;;;;;;;;;;;;;;;;;;5044557;28;5266;-56
2024/02/29 00:16:31;;;;;;;;;;;;;;;;;;5052241;28;5038;-56
2024/02/29 00:18:56;;;;;;;;;;;;;;;;;;5050122;28;5035;-56
2024/02/29 00:21:22;;;;;;;;;;;;;;;;;;5054889;28;5309;-57
2024/02/29 00:23:47;;;;;;;;;;;;;;;;;;5059510;28;1157;-57
2024/02/29 00:26:15;;;;;;;;;;;;;;;;;;5055560;28;4943;-58
2024/02/29 00:28:40;;;;;;;;;;;;;;;;;;5041864;28;5049;-57
2024/02/29 00:31:06;;;;;;;;;;;;;;;;;;5060978;28;4852;-57
2024/02/29 00:33:31;;;;;;;;;;;;;;;;;;5045580;28;4713;-57
2024/02/29 00:35:56;;;;;;;;;;;;;;;;;;5040359;28;1236;-57
2024/02/29 00:38:22;;;;;;;;;;;;;;;;;;5047821;28;5024;-57
2024/02/29 00:40:47;;;;;;;;;;;;;;;;;;5059754;28;5132;-56
2024/02/29 00:43:12;;;;;;;;;;;;;;;;;;5057528;28;5081;-57
2024/02/29 00:45:38;;;;;;;;;;;;;;;;;;5058483;28;5041;-57
2024/02/29 00:48:03;;;;;;;;;;;;;;;;;;5063654;28;1166;-57
2024/02/29 00:50:29;;;;;;;;;;;;;;;;;;5074222;28;5206;-57
2024/02/29 00:52:54;;;;;;;;;;;;;;;;;;5050820;28;5183;-57
2024/02/29 00:55:19;;;;;;;;;;;;;;;;;;5053508;28;4484;-57
2024/02/29 00:57:49;;;;;;;;;;;;;;;;;;5053649;28;5225;-57
2024/02/29 01:00:14;;;;;;;;;;;;;;;;;;5048635;28;5112;-57
2024/02/29 01:02:40;;;;;;;;;;;;;;;;;;5053877;28;3505;-57
2024/02/29 01:05:05;;;;;;;;;;;;;;;;;;5054897;28;4456;-57
2024/02/29 01:07:31;;;;;;;;;;;;;;;;;;5058480;28;4476;-56
2024/02/29 01:09:58;;;;;;;;;;;;;;;;;;5070152;28;4896;-57
2024/02/29 01:12:23;;;;;;;;;;;;;;;;;;5058740;28;5046;-56
2024/02/29 01:14:48;;;;;;;;;;;;;;;;;;5051225;28;1096;-57
2024/02/29 01:17:14;;;;;;;;;;;;;;;;;;5050089;28;5087;-58
2024/02/29 01:19:39;;;;;;;;;;;;;;;;;;5057597;28;4604;-57
2024/02/29 01:22:04;;;;;;;;;;;;;;;;;;5057429;28;5417;-57
2024/02/29 01:24:30;;;;;;;;;;;;;;;;;;5067078;28;5137;-56
2024/02/29 01:26:55;;;;;;;;;;;;;;;;;;5058554;28;1229;-56
2024/02/29 01:29:20;;;;;;;;;;;;;;;;;;5052771;28;4967;-56
2024/02/29 01:31:46;;;;;;;;;;;;;;;;;;5041772;28;5112;-56
2024/02/29 01:34:11;;;;;;;;;;;;;;;;;;5052376;28;5023;-56
2024/02/29 01:36:37;;;;;;;;;;;;;;;;;;5045456;28;5970;-56
2024/02/29 01:39:02;;;;;;;;;;;;;;;;;;5044563;28;1549;-56
2024/02/29 01:41:28;;;;;;;;;;;;;;;;;;5039221;28;4986;-56
2024/02/29 01:43:54;;;;;;;;;;;;;;;;;;5061544;28;4667;-56
2024/02/29 01:46:19;;;;;;;;;;;;;;;;;;5044592;28;5029;-57
2024/02/29 01:48:45;;;;;;;;;;;;;;;;;;5048818;28;4524;-57
2024/02/29 01:51:11;;;;;;;;;;;;;;;;;;5051209;28;3150;-57
2024/02/29 01:53:36;;;;;;;;;;;;;;;;;;5063342;28;4377;-57
2024/02/29 01:56:01;;;;;;;;;;;;;;;;;;5072024;28;4496;-56
2024/02/29 01:58:27;;;;;;;;;;;;;;;;;;5053555;28;5092;-57
2024/02/29 02:00:52;;;;;;;;;;;;;;;;;;5048968;28;5248;-57
2024/02/29 02:03:17;;;;;;;;;;;;;;;;;;5052426;28;5202;-57
2024/02/29 02:05:43;;;;;;;;;;;;;;;;;;5049439;28;3097;-56
2024/02/29 02:08:08;;;;;;;;;;;;;;;;;;5044135;28;5135;-57
2024/02/29 02:10:33;;;;;;;;;;;;;;;;;;5057012;28;5701;-57
2024/02/29 02:13:00;;;;;;;;;;;;;;;;;;5040330;28;5100;-56
2024/02/29 02:15:26;;;;;;;;;;;;;;;;;;5045840;28;5008;-57
2024/02/29 02:17:51;;;;;;;;;;;;;;;;;;5053814;28;3223;-57
2024/02/29 02:20:17;;;;;;;;;;;;;;;;;;5039859;28;4563;-57
2024/02/29 02:22:42;;;;;;;;;;;;;;;;;;5040539;28;5141;-57
2024/02/29 02:25:07;;;;;;;;;;;;;;;;;;5036570;28;5020;-57
2024/02/29 02:27:33;;;;;;;;;;;;;;;;;;5042593;28;4735;-57
2024/02/29 02:29:59;;;;;;;;;;;;;;;;;;5022491;28;3262;-57
2024/02/29 02:32:24;;;;;;;;;;;;;;;;;;5041169;28;5295;-57
2024/02/29 02:34:49;;;;;;;;;;;;;;;;;;5045802;28;5062;-57
2024/02/29 02:37:14;;;;;;;;;;;;;;;;;;5044660;28;4512;-57
2024/02/29 02:39:40;;;;;;;;;;;;;;;;;;5036090;28;5787;-57
2024/02/29 02:42:05;;;;;;;;;;;;;;;;;;5040661;28;3272;-57
2024/02/29 02:44:30;;;;;;;;;;;;;;;;;;5040761;28;4997;-57
2024/02/29 02:46:56;;;;;;;;;;;;;;;;;;5039421;28;5115;-58
2024/02/29 02:49:21;;;;;;;;;;;;;;;;;;5037350;28;5011;-57
2024/02/29 02:51:46;;;;;;;;;;;;;;;;;;5039930;28;4704;-58
2024/02/29 02:54:12;;;;;;;;;;;;;;;;;;5039958;28;4584;-56
2024/02/29 02:56:37;;;;;;;;;;;;;;;;;;5040663;28;3282;-57
2024/02/29 02:59:02;;;;;;;;;;;;;;;;;;5037013;28;4440;-57
2024/02/29 03:01:28;;;;;;;;;;;;;;;;;;5036199;28;5029;-57
2024/02/29 03:03:54;;;;;;;;;;;;;;;;;;5040236;28;5151;-57
2024/02/29 03:06:19;;;;;;;;;;;;;;;;;;5032701;28;5961;-57
2024/02/29 03:08:44;;;;;;;;;;;;;;;;;;5033249;28;3679;-56
2024/02/29 03:11:10;;;;;;;;;;;;;;;;;;5038723;28;5102;-57
2024/02/29 03:13:36;;;;;;;;;;;;;;;;;;5037761;28;4524;-57
2024/02/29 03:16:01;;;;;;;;;;;;;;;;;;5038972;28;5003;-57
2024/02/29 03:18:26;;;;;;;;;;;;;;;;;;5040902;28;5008;-56
2024/02/29 03:20:52;;;;;;;;;;;;;;;;;;5039785;28;1050;-58
2024/02/29 03:23:19;;;;;;;;;;;;;;;;;;5040181;28;4460;-57
2024/02/29 03:25:45;;;;;;;;;;;;;;;;;;5033963;28;5091;-57
2024/02/29 03:28:10;;;;;;;;;;;;;;;;;;5032571;28;4999;-57
2024/02/29 03:30:35;;;;;;;;;;;;;;;;;;5033626;28;5162;-58
2024/02/29 03:33:00;;;;;;;;;;;;;;;;;;5032365;28;1926;-57
2024/02/29 03:35:26;;;;;;;;;;;;;;;;;;5035462;28;5066;-57
2024/02/29 03:37:51;;;;;;;;;;;;;;;;;;5040217;28;4560;-58
2024/02/29 03:40:17;;;;;;;;;;;;;;;;;;5028825;28;5066;-57
2024/02/29 03:42:42;;;;;;;;;;;;;;;;;;5034849;28;4673;-58
2024/02/29 03:45:08;;;;;;;;;;;;;;;;;;5040825;28;1160;-57
2024/02/29 03:47:33;;;;;;;;;;;;;;;;;;5034042;28;5004;-57
2024/02/29 03:49:58;;;;;;;;;;;;;;;;;;5034470;28;4967;-57
2024/02/29 03:52:24;;;;;;;;;;;;;;;;;;5036911;28;5128;-57
2024/02/29 03:54:49;;;;;;;;;;;;;;;;;;5038214;28;4781;-57
2024/02/29 03:57:14;;;;;;;;;;;;;;;;;;5036672;28;5198;-57
2024/02/29 03:59:42;;;;;;;;;;;;;;;;;;5029944;28;3280;-57
2024/02/29 04:02:07;;;;;;;;;;;;;;;;;;5037168;28;4539;-57
2024/02/29 04:04:33;;;;;;;;;;;;;;;;;;5035754;28;5133;-57
2024/02/29 04:06:58;;;;;;;;;;;;;;;;;;5032881;28;5138;-57
2024/02/29 04:09:24;;;;;;;;;;;;;;;;;;5035165;28;5075;-57
2024/02/29 04:11:50;;;;;;;;;;;;;;;;;;5015766;28;3345;-57
2024/02/29 04:14:16;;;;;;;;;;;;;;;;;;5032121;28;4937;-57
2024/02/29 04:16:41;;;;;;;;;;;;;;;;;;5035812;28;5085;-56
2024/02/29 04:19:06;;;;;;;;;;;;;;;;;;5045145;28;5148;-57
2024/02/29 04:21:32;;;;;;;;;;;;;;;;;;5041209;28;4920;-56
2024/02/29 04:23:57;;;;;;;;;;;;;;;;;;5037474;28;3169;-57
2024/02/29 04:26:24;;;;;;;;;;;;;;;;;;5031988;28;5090;-56
2024/02/29 04:28:49;;;;;;;;;;;;;;;;;;5038892;28;5009;-56
2024/02/29 04:31:14;;;;;;;;;;;;;;;;;;5029384;28;5108;-56
2024/02/29 04:33:40;;;;;;;;;;;;;;;;;;5035897;28;5108;-57
2024/02/29 04:36:05;;;;;;;;;;;;;;;;;;5031947;28;3293;-57
2024/02/29 04:38:31;;;;;;;;;;;;;;;;;;5032757;28;4507;-57
2024/02/29 04:40:56;;;;;;;;;;;;;;;;;;5032437;28;5144;-57
2024/02/29 04:43:22;;;;;;;;;;;;;;;;;;5036842;28;5032;-56
2024/02/29 04:45:48;;;;;;;;;;;;;;;;;;5034113;28;5096;-57
2024/02/29 04:48:13;;;;;;;;;;;;;;;;;;5041187;28;4496;-57
2024/02/29 04:50:38;;;;;;;;;;;;;;;;;;5036029;28;3237;-56
2024/02/29 04:53:03;;;;;;;;;;;;;;;;;;5019528;28;4722;-57
2024/02/29 04:55:30;;;;;;;;;;;;;;;;;;5039980;28;5087;-57
2024/02/29 04:57:55;;;;;;;;;;;;;;;;;;5042704;28;5279;-57
2024/02/29 05:00:21;;;;;;;;;;;;;;;;;;5037929;28;5045;-56
2024/02/29 05:02:46;;;;;;;;;;;;;;;;;;5032567;28;3231;-57
2024/02/29 05:05:12;;;;;;;;;;;;;;;;;;5040385;28;5017;-56
2024/02/29 05:07:37;;;;;;;;;;;;;;;;;;5031227;28;5430;-56
2024/02/29 05:10:03;;;;;;;;;;;;;;;;;;5037468;28;5107;-56
2024/02/29 05:12:28;;;;;;;;;;;;;;;;;;5032648;28;4528;-57
2024/02/29 05:14:53;;;;;;;;;;;;;;;;;;5029782;28;3356;-57
2024/02/29 05:17:19;;;;;;;;;;;;;;;;;;5032390;28;4865;-57
2024/02/29 05:19:44;;;;;;;;;;;;;;;;;;5027119;28;5190;-57
2024/02/29 05:22:09;;;;;;;;;;;;;;;;;;5033781;28;4642;-57
2024/02/29 05:24:35;;;;;;;;;;;;;;;;;;5026522;28;5161;-56
2024/02/29 05:27:00;;;;;;;;;;;;;;;;;;5040784;28;3252;-57
2024/02/29 05:29:25;;;;;;;;;;;;;;;;;;5027956;28;4475;-57
2024/02/29 05:31:53;;;;;;;;;;;;;;;;;;5035960;28;4933;-56
2024/02/29 05:34:20;;;;;;;;;;;;;;;;;;5034734;28;5096;-57
2024/02/29 05:36:45;;;;;;;;;;;;;;;;;;5026911;28;4528;-57
2024/02/29 05:39:12;;;;;;;;;;;;;;;;;;5027319;28;3365;-57
2024/02/29 05:41:37;;;;;;;;;;;;;;;;;;5030575;28;5654;-56
2024/02/29 05:44:02;;;;;;;;;;;;;;;;;;5027087;28;5167;-57
2024/02/29 05:46:28;;;;;;;;;;;;;;;;;;5035457;28;4544;-56
2024/02/29 05:48:53;;;;;;;;;;;;;;;;;;5028014;28;5128;-58
2024/02/29 05:51:18;;;;;;;;;;;;;;;;;;5030836;28;5140;-56
2024/02/29 05:53:44;;;;;;;;;;;;;;;;;;5027803;28;3464;-56
2024/02/29 05:56:09;;;;;;;;;;;;;;;;;;5012091;28;5020;-56
2024/02/29 05:58:34;;;;;;;;;;;;;;;;;;5035027;28;5099;-56
2024/02/29 06:01:00;;;;;;;;;;;;;;;;;;5021389;28;4958;-57
2024/02/29 06:03:25;;;;;;;;;;;;;;;;;;5024368;28;4923;-56
2024/02/29 06:05:51;;;;;;;;;;;;;;;;;;5029806;28;3689;-56
2024/02/29 06:08:16;;;;;;;;;;;;;;;;;;5027906;28;5836;-57
2024/02/29 06:10:42;;;;;;;;;;;;;;;;;;5027549;28;4795;-56
2024/02/29 06:13:07;;;;;;;;;;;;;;;;;;5042397;28;5143;-56
2024/02/29 06:15:33;;;;;;;;;;;;;;;;;;5024904;28;4588;-56
2024/02/29 06:17:58;;;;;;;;;;;;;;;;;;5037069;28;3301;-56
2024/02/29 06:20:23;;;;;;;;;;;;;;;;;;5027156;28;4499;-59
2024/02/29 06:22:49;;;;;;;;;;;;;;;;;;5027485;28;5415;-58
2024/02/29 06:25:14;;;;;;;;;;;;;;;;;;5029584;28;5053;-57
2024/02/29 06:27:40;;;;;;;;;;;;;;;;;;5026045;28;5371;-58
2024/02/29 06:30:06;;;;;;;;;;;;;;;;;;5026182;28;3330;-59
2024/02/29 06:32:32;;;;;;;;;;;;;;;;;;5019732;28;5422;-58
2024/02/29 06:34:57;;;;;;;;;;;;;;;;;;5020621;28;4913;-57
2024/02/29 06:37:22;;;;;;;;;;;;;;;;;;5023249;28;4622;-58
2024/02/29 06:39:48;;;;;;;;;;;;;;;;;;5023914;28;4831;-57
2024/02/29 06:42:13;;;;;;;;;;;;;;;;;;5025099;28;4544;-58
2024/02/29 06:44:39;;;;;;;;;;;;;;;;;;5024565;28;3255;-58
2024/02/29 06:47:04;;;;;;;;;;;;;;;;;;5018745;28;4765;-58
2024/02/29 06:49:29;;;;;;;;;;;;;;;;;;5028455;28;4790;-57
2024/02/29 06:51:55;;;;;;;;;;;;;;;;;;5021057;28;4620;-58
2024/02/29 06:54:20;;;;;;;;;;;;;;;;;;5016552;28;5153;-57
2024/02/29 06:56:45;;;;;;;;;;;;;;;;;;5037998;28;3302;-57
2024/02/29 06:59:11;;;;;;;;;;;;;;;;;;5050566;28;4712;-57
2024/02/29 07:01:36;;;;;;;;;;;;;;;;;;5032923;28;5118;-58
2024/02/29 07:04:02;;;;;;;;;;;;;;;;;;5031620;28;5055;-57
2024/02/29 07:06:27;;;;;;;;;;;;;;;;;;5030489;28;5604;-57
2024/02/29 07:08:53;;;;;;;;;;;;;;;;;;5040328;28;1421;-58
2024/02/29 07:11:19;;;;;;;;;;;;;;;;;;5030258;28;5184;-57
2024/02/29 07:13:45;;;;;;;;;;;;;;;;;;5029165;28;5258;-57
2024/02/29 07:16:10;;;;;;;;;;;;;;;;;;5041803;28;5234;-57
2024/02/29 07:18:36;;;;;;;;;;;;;;;;;;5030904;28;5163;-57
2024/02/29 07:21:02;;;;;;;;;;;;;;;;;;5028235;28;3313;-57
2024/02/29 07:23:27;;;;;;;;;;;;;;;;;;5015431;28;5932;-57
2024/02/29 07:25:53;;;;;;;;;;;;;;;;;;5013224;28;5076;-57
2024/02/29 07:28:18;;;;;;;;;;;;;;;;;;5032122;28;4564;-57
2024/02/29 07:30:43;;;;;;;;;;;;;;;;;;5029342;28;5119;-57
2024/02/29 07:33:09;;;;;;;;;;;;;;;;;;5032028;28;3293;-57
2024/02/29 07:35:34;;;;;;;;;;;;;;;;;;5032075;28;4917;-58
2024/02/29 07:38:00;;;;;;;;;;;;;;;;;;5038067;28;5433;-58
2024/02/29 07:40:25;;;;;;;;;;;;;;;;;;5026717;28;4572;-58
2024/02/29 07:42:50;;;;;;;;;;;;;;;;;;5036521;28;5074;-57
2024/02/29 07:45:16;;;;;;;;;;;;;;;;;;5031210;28;4962;-57
2024/02/29 07:47:41;;;;;;;;;;;;;;;;;;5028886;28;3254;-57
2024/02/29 07:50:07;;;;;;;;;;;;;;;;;;5034243;28;5046;-57
2024/02/29 07:52:32;;;;;;;;;;;;;;;;;;5030656;28;4777;-57
2024/02/29 07:54:58;;;;;;;;;;;;;;;;;;5032809;28;5064;-57
2024/02/29 07:57:23;;;;;;;;;;;;;;;;;;5040476;28;5398;-58
2024/02/29 07:59:48;;;;;;;;;;;;;;;;;;5043315;28;1166;-57
2024/02/29 08:02:14;;;;;;;;;;;;;;;;;;5033183;28;5522;-57
2024/02/29 08:04:39;;;;;;;;;;;;;;;;;;5042525;28;5049;-57
2024/02/29 08:07:05;;;;;;;;;;;;;;;;;;5054623;28;6036;-57
2024/02/29 08:09:30;;;;;;;;;;;;;;;;;;5054506;28;4567;-57
2024/02/29 08:11:55;;;;;;;;;;;;;;;;;;5045566;28;3246;-57
2024/02/29 08:14:21;;;;;;;;;;;;;;;;;;5063487;28;5142;-58
2024/02/29 08:16:46;;;;;;;;;;;;;;;;;;5049813;28;5044;-57
2024/02/29 08:19:11;;;;;;;;;;;;;;;;;;5055037;28;4556;-57
2024/02/29 08:21:37;;;;;;;;;;;;;;;;;;5042819;28;4534;-57
2024/02/29 08:24:02;;;;;;;;;;;;;;;;;;5046194;28;3367;-57
2024/02/29 08:26:28;;;;;;;;;;;;;;;;;;5044147;28;4849;-57
2024/02/29 08:28:54;;;;;;;;;;;;;;;;;;5050112;28;4852;-56
2024/02/29 08:31:20;;;;;;;;;;;;;;;;;;5037774;28;5024;-57
2024/02/29 08:33:45;;;;;;;;;;;;;;;;;;5047020;28;5207;-57
2024/02/29 08:36:11;;;;;;;;;;;;;;;;;;5054709;28;3219;-57
2024/02/29 08:38:37;;;;;;;;;;;;;;;;;;5063615;28;4489;-58
2024/02/29 08:41:04;;;;;;;;;;;;;;;;;;5044764;28;4989;-57
2024/02/29 08:43:29;;;;;;;;;;;;;;;;;;5067918;28;4711;-57
2024/02/29 08:45:54;;;;;;;;;;;;;;;;;;5054274;28;5071;-57
2024/02/29 08:48:20;;;;;;;;;;;;;;;;;;5059489;28;4509;-57
2024/02/29 08:50:45;;;;;;;;;;;;;;;;;;5059619;28;1184;-57
2024/02/29 08:53:10;;;;;;;;;;;;;;;;;;5052364;28;5035;-57
2024/02/29 08:55:36;;;;;;;;;;;;;;;;;;5045575;28;5134;-57
2024/02/29 08:58:01;;;;;;;;;;;;;;;;;;5036089;28;4760;-57
2024/02/29 09:00:27;;;;;;;;;;;;;;;;;;5043769;28;5119;-57
2024/02/29 09:02:52;;;;;;;;;;;;;;;;;;5050627;28;3441;-57
2024/02/29 09:05:17;;;;;;;;;;;;;;;;;;5046826;28;4697;-58
2024/02/29 09:07:42;;;;;;;;;;;;;;;;;;5050336;28;5175;-57
2024/02/29 09:10:09;;;;;;;;;;;;;;;;;;5042796;28;5132;-58
2024/02/29 09:12:34;;;;;;;;;;;;;;;;;;5056558;28;5004;-58
2024/02/29 09:15:02;;;;;;;;;;;;;;;;;;5058496;28;1089;-57
2024/02/29 09:17:27;;;;;;;;;;;;;;;;;;5058003;28;4967;-57
2024/02/29 09:19:53;;;;;;;;;;;;;;;;;;5059918;28;4465;-58
2024/02/29 09:22:18;;;;;;;;;;;;;;;;;;5060738;28;4914;-58
2024/02/29 09:24:45;;;;;;;;;;;;;;;;;;5052272;28;5042;-57
2024/02/29 09:27:11;;;;;;;;;;;;;;;;;;5047926;28;3215;-57
2024/02/29 09:29:36;;;;;;;;;;;;;;;;;;5029799;28;5031;-57
2024/02/29 09:32:02;;;;;;;;;;;;;;;;;;5051184;28;4618;-57
2024/02/29 09:34:28;;;;;;;;;;;;;;;;;;5050742;28;4786;-58
2024/02/29 09:36:53;;;;;;;;;;;;;;;;;;5048363;28;5168;-58
2024/02/29 09:39:18;;;;;;;;;;;;;;;;;;5056667;28;5256;-57
2024/02/29 09:41:44;;;;;;;;;;;;;;;;;;5055443;28;1117;-58
2024/02/29 09:44:09;;;;;;;;;;;;;;;;;;5069869;28;5021;-57
2024/02/29 09:46:35;;;;;;;;;;;;;;;;;;5055870;28;5354;-58
2024/02/29 09:49:00;;;;;;;;;;;;;;;;;;5030500;28;5153;-57
2024/02/29 09:51:26;;;;;;;;;;;;;;;;;;5048763;28;5120;-58
2024/02/29 09:53:52;;;;;;;;;;;;;;;;;;5037217;28;1910;-58
2024/02/29 09:56:22;;;;;;;;;;;;;;;;;;5035354;28;4967;-57
2024/02/29 09:58:49;;;;;;;;;;;;;;;;;;5048161;28;5110;-57
2024/02/29 10:01:14;;;;;;;;;;;;;;;;;;5052032;28;5164;-58
2024/02/29 10:03:40;;;;;;;;;;;;;;;;;;5048749;28;4828;-58
2024/02/29 10:06:06;;;;;;;;;;;;;;;;;;5058599;28;3512;-57
2024/02/29 10:08:31;;;;;;;;;;;;;;;;;;5052664;28;4896;-57
2024/02/29 10:10:57;;;;;;;;;;;;;;;;;;5044644;28;4531;-57
2024/02/29 10:13:22;;;;;;;;;;;;;;;;;;5052795;28;4594;-58
2024/02/29 10:15:51;;;;;;;;;;;;;;;;;;5055826;28;4468;-57
2024/02/29 10:18:16;;;;;;;;;;;;;;;;;;5050984;28;4947;-57
2024/02/29 10:20:42;;;;;;;;;;;;;;;;;;5046242;28;3254;-58
2024/02/29 10:23:15;;;;;;;;;;;;;;;;;;5060011;28;4905;-57
2024/02/29 10:25:40;;;;;;;;;;;;;;;;;;5052465;28;5122;-57
2024/02/29 10:28:06;;;;;;;;;;;;;;;;;;5048797;28;5086;-58
2024/02/29 10:30:31;;;;;;;;;;;;;;;;;;5048354;28;5180;-57
2024/02/29 10:32:57;;;;;;;;;;;;;;;;;;5042964;28;3185;-58
2024/02/29 10:35:23;;;;;;;;;;;;;;;;;;5066597;28;4984;-57
2024/02/29 10:37:49;;;;;;;;;;;;;;;;;;5057671;28;4894;-57
2024/02/29 10:40:14;;;;;;;;;;;;;;;;;;5045158;28;4540;-59
2024/02/29 10:42:40;;;;;;;;;;;;;;;;;;5046060;28;5132;-57
2024/02/29 10:45:15;;;;;;;;;;;;;;;;;;5051015;28;3159;-58
2024/02/29 10:47:44;;;;;;;;;;;;;;;;;;5053743;28;4511;-58
2024/02/29 10:50:09;;;;;;;;;;;;;;;;;;5034148;28;5128;-57
2024/02/29 10:52:35;;;;;;;;;;;;;;;;;;5060744;28;4967;-58
2024/02/29 10:55:08;;;;;;;;;;;;;;;;;;5051816;28;5234;-59
2024/02/29 10:57:38;;;;;;;;;;;;;;;;;;5047897;28;5197;-57
2024/02/29 11:00:04;;;;;;;;;;;;;;;;;;5058646;28;3184;-56
2024/02/29 11:02:29;;;;;;;;;;;;;;;;;;5066622;28;5133;-57
2024/02/29 11:04:55;;;;;;;;;;;;;;;;;;5068900;28;5226;-57
2024/02/29 11:07:20;;;;;;;;;;;;;;;;;;5045798;28;4955;-58
2024/02/29 11:09:45;;;;;;;;;;;;;;;;;;5028298;28;5095;-57
2024/02/29 11:12:12;;;;;;;;;;;;;;;;;;5032770;28;3088;-58
2024/02/29 11:14:37;;;;;;;;;;;;;;;;;;5031793;28;4703;-57
2024/02/29 11:17:04;;;;;;;;;;;;;;;;;;5013301;28;5084;-57
2024/02/29 11:19:29;;;;;;;;;;;;;;;;;;5010328;28;5169;-59
2024/02/29 11:21:55;;;;;;;;;;;;;;;;;;5019622;28;5236;-57
2024/02/29 11:24:20;;;;;;;;;;;;;;;;;;5033283;28;5402;-56
2024/02/29 11:26:46;;;;;;;;;;;;;;;;;;5014681;28;1220;-59
2024/02/29 11:29:14;;;;;;;;;;;;;;;;;;5025174;28;4524;-57
2024/02/29 11:31:53;;;;;;;;;;;;;;;;;;5020481;28;4616;-57
2024/02/29 11:34:20;;;;;;;;;;;;;;;;;;5034508;28;5079;-57
2024/02/29 11:36:47;;;;;;;;;;;;;;;;;;5043433;28;5006;-58
2024/02/29 11:39:14;;;;;;;;;;;;;;;;;;5023055;28;5142;-57
2024/02/29 11:41:40;;;;;;;;;;;;;;;;;;5031182;28;3466;-57
2024/02/29 11:44:05;;;;;;;;;;;;;;;;;;5035011;28;5045;-57
2024/02/29 11:46:30;;;;;;;;;;;;;;;;;;5030444;28;4881;-57
2024/02/29 11:48:56;;;;;;;;;;;;;;;;;;5038754;28;5197;-56
2024/02/29 11:51:23;;;;;;;;;;;;;;;;;;5035869;28;5174;-58
2024/02/29 11:53:49;;;;;;;;;;;;;;;;;;5035134;28;1968;-57
2024/02/29 11:56:14;;;;;;;;;;;;;;;;;;5015920;28;5096;-57
2024/02/29 11:58:39;;;;;;;;;;;;;;;;;;5051993;28;4493;-57
2024/02/29 12:01:05;;;;;;;;;;;;;;;;;;5030937;28;4970;-57
2024/02/29 12:03:31;;;;;;;;;;;;;;;;;;5040375;28;5043;-57
2024/02/29 12:06:00;;;;;;;;;;;;;;;;;;5039822;28;3206;-56
2024/02/29 12:08:28;;;;;;;;;;;;;;;;;;5046568;28;5060;-56
2024/02/29 12:11:00;;;;;;;;;;;;;;;;;;5049661;28;5201;-58
2024/02/29 12:13:25;;;;;;;;;;;;;;;;;;5059416;28;5154;-56
2024/02/29 12:15:52;;;;;;;;;;;;;;;;;;5077273;28;4890;-56
2024/02/29 12:18:17;;;;;;;;;;;;;;;;;;5069238;28;4622;-57
2024/02/29 12:20:43;;;;;;;;;;;;;;;;;;5055531;28;1086;-57
2024/02/29 12:23:12;;;;;;;;;;;;;;;;;;5057689;28;5020;-57
2024/02/29 12:25:37;;;;;;;;;;;;;;;;;;5042435;28;5450;-57
2024/02/29 12:28:03;;;;;;;;;;;;;;;;;;5067303;28;4652;-58
2024/02/29 12:30:30;;;;;;;;;;;;;;;;;;5049715;28;5308;-57
2024/02/29 12:32:55;;;;;;;;;;;;;;;;;;5045681;28;3122;-57
2024/02/29 12:35:21;;;;;;;;;;;;;;;;;;5041648;28;5546;-57
2024/02/29 12:37:46;;;;;;;;;;;;;;;;;;5038264;28;1186;-58
2024/02/29 12:40:12;;;;;;;;;;;;;;;;;;5046878;28;4972;-56
2024/02/29 12:42:38;;;;;;;;;;;;;;;;;;5061770;28;5009;-57
2024/02/29 12:45:03;;;;;;;;;;;;;;;;;;5052244;28;4560;-57
2024/02/29 12:47:29;;;;;;;;;;;;;;;;;;5067722;28;4568;-56
2024/02/29 12:49:54;;;;;;;;;;;;;;;;;;5057851;28;4757;-57
2024/02/29 12:52:20;;;;;;;;;;;;;;;;;;5057861;28;1914;-57
2024/02/29 12:54:45;;;;;;;;;;;;;;;;;;5055468;28;4735;-57
2024/02/29 12:57:10;;;;;;;;;;;;;;;;;;5057820;28;5057;-56
2024/02/29 12:59:36;;;;;;;;;;;;;;;;;;5058137;28;5053;-56
2024/02/29 13:02:02;;;;;;;;;;;;;;;;;;5049105;28;5373;-57
2024/02/29 13:04:27;;;;;;;;;;;;;;;;;;5056560;28;1270;-56
2024/02/29 13:06:53;;;;;;;;;;;;;;;;;;5053381;28;4855;-57
2024/02/29 13:09:19;;;;;;;;;;;;;;;;;;5054551;28;4574;-57
2024/02/29 13:11:48;;;;;;;;;;;;;;;;;;5053197;28;5049;-57
2024/02/29 13:14:13;;;;;;;;;;;;;;;;;;5055480;28;4962;-57
2024/02/29 13:16:38;;;;;;;;;;;;;;;;;;5061731;28;1109;-56
2024/02/29 13:19:04;;;;;;;;;;;;;;;;;;5059077;28;5071;-57
2024/02/29 13:21:30;;;;;;;;;;;;;;;;;;5051972;28;4597;-57
2024/02/29 13:23:56;;;;;;;;;;;;;;;;;;5060769;28;5226;-56
2024/02/29 13:26:22;;;;;;;;;;;;;;;;;;5054722;28;5184;-56
2024/02/29 13:28:47;;;;;;;;;;;;;;;;;;5057191;28;1186;-57
2024/02/29 13:31:14;;;;;;;;;;;;;;;;;;5038467;28;4536;-57
2024/02/29 13:33:39;;;;;;;;;;;;;;;;;;5033306;28;5228;-56
2024/02/29 13:36:04;;;;;;;;;;;;;;;;;;5021587;28;5058;-56
2024/02/29 13:38:30;;;;;;;;;;;;;;;;;;5050202;28;5206;-57
2024/02/29 13:40:55;;;;;;;;;;;;;;;;;;5048704;28;5123;-57
2024/02/29 13:43:21;;;;;;;;;;;;;;;;;;5063308;28;1089;-56
2024/02/29 13:45:46;;;;;;;;;;;;;;;;;;5061300;28;4986;-56
2024/02/29 13:48:11;;;;;;;;;;;;;;;;;;5058701;28;5092;-57
2024/02/29 13:50:37;;;;;;;;;;;;;;;;;;5062677;28;5109;-56
2024/02/29 13:53:02;;;;;;;;;;;;;;;;;;5062055;28;4879;-56
2024/02/29 13:55:27;;;;;;;;;;;;;;;;;;5063857;28;1092;-57
2024/02/29 13:57:53;;;;;;;;;;;;;;;;;;5055172;28;4540;-56
2024/02/29 14:00:18;;;;;;;;;;;;;;;;;;5057542;28;4887;-56
2024/02/29 14:02:44;;;;;;;;;;;;;;;;;;5027966;28;5119;-56
2024/02/29 14:05:09;;;;;;;;;;;;;;;;;;5055493;28;5005;-57
2024/02/29 14:07:35;;;;;;;;;;;;;;;;;;5052875;28;1273;-57
2024/02/29 14:10:01;;;;;;;;;;;;;;;;;;5054084;28;5344;-56
2024/02/29 14:12:27;;;;;;;;;;;;;;;;;;5035953;28;5043;-57
2024/02/29 14:14:52;;;;;;;;;;;;;;;;;;5053005;28;5160;-56
2024/02/29 14:17:17;;;;;;;;;;;;;;;;;;5052454;28;5250;-56
2024/02/29 14:19:43;;;;;;;;;;;;;;;;;;5061659;28;3282;-56
2024/02/29 14:22:08;;;;;;;;;;;;;;;;;;5056894;28;4603;-57
2024/02/29 14:24:33;;;;;;;;;;;;;;;;;;5059626;28;5085;-56
2024/02/29 14:26:59;;;;;;;;;;;;;;;;;;5056337;28;5002;-57
2024/02/29 14:29:24;;;;;;;;;;;;;;;;;;5038121;28;4526;-56
2024/02/29 14:31:50;;;;;;;;;;;;;;;;;;5053940;28;3222;-57
2024/02/29 14:34:16;;;;;;;;;;;;;;;;;;5043514;28;4487;-57
2024/02/29 14:36:41;;;;;;;;;;;;;;;;;;5050827;28;5074;-57
2024/02/29 14:39:13;;;;;;;;;;;;;;;;;;5052756;28;5456;-57
2024/02/29 14:41:38;;;;;;;;;;;;;;;;;;5048224;28;5052;-57
2024/02/29 14:44:04;;;;;;;;;;;;;;;;;;5054279;28;4626;-57
2024/02/29 14:46:29;;;;;;;;;;;;;;;;;;5057916;28;1225;-56
2024/02/29 14:48:56;;;;;;;;;;;;;;;;;;5070101;28;5072;-57
2024/02/29 14:51:21;;;;;;;;;;;;;;;;;;5061237;28;4526;-57
2024/02/29 14:53:50;;;;;;;;;;;;;;;;;;5059323;28;4594;-59
2024/02/29 14:56:15;;;;;;;;;;;;;;;;;;5055000;28;5142;-57
2024/02/29 14:58:40;;;;;;;;;;;;;;;;;;5076823;28;1097;-57
2024/02/29 15:01:06;;;;;;;;;;;;;;;;;;5055045;28;5078;-58
2024/02/29 15:03:31;;;;;;;;;;;;;;;;;;5053141;28;4489;-53
2024/02/29 15:05:57;;;;;;;;;;;;;;;;;;5052464;28;5314;-56
2024/02/29 15:08:22;;;;;;;;;;;;;;;;;;5067094;28;5204;-52
2024/02/29 15:10:47;;;;;;;;;;;;;;;;;;5043952;28;1381;-54
2024/02/29 15:13:13;;;;;;;;;;;;;;;;;;5059078;28;4618;-53
2024/02/29 15:15:38;;;;;;;;;;;;;;;;;;5062983;28;5039;-53
2024/02/29 15:18:04;;;;;;;;;;;;;;;;;;5075435;28;4684;-52
2024/02/29 15:20:29;;;;;;;;;;;;;;;;;;5048492;28;5249;-52
2024/02/29 15:22:54;;;;;;;;;;;;;;;;;;5071117;28;4539;-53
2024/02/29 15:25:23;;;;;;;;;;;;;;;;;;5069895;28;2122;-53
2024/02/29 15:27:53;;;;;;;;;;;;;;;;;;5049591;28;4629;-54
2024/02/29 15:30:19;;;;;;;;;;;;;;;;;;5046622;28;5083;-55
2024/02/29 15:32:45;;;;;;;;;;;;;;;;;;5041112;28;4972;-52
2024/02/29 15:35:10;;;;;;;;;;;;;;;;;;5054903;28;4473;-50
2024/02/29 15:37:35;;;;;;;;;;;;;;;;;;5047876;28;2147;-54
2024/02/29 15:40:01;;;;;;;;;;;;;;;;;;5045910;28;4526;-53
2024/02/29 15:42:26;;;;;;;;;;;;;;;;;;5041821;28;4526;-56
2024/02/29 15:44:52;;;;;;;;;;;;;;;;;;5048736;28;5014;-50
2024/02/29 15:47:17;;;;;;;;;;;;;;;;;;5038554;28;5079;-52
2024/02/29 15:49:43;;;;;;;;;;;;;;;;;;5061490;28;1085;-55
2024/02/29 15:52:08;;;;;;;;;;;;;;;;;;5059665;28;5038;-54
2024/02/29 15:54:33;;;;;;;;;;;;;;;;;;5041466;28;4572;-52
2024/02/29 15:56:59;;;;;;;;;;;;;;;;;;5047258;28;4526;-58
2024/02/29 15:59:25;;;;;;;;;;;;;;;;;;5052951;28;5156;-52
2024/02/29 16:01:50;;;;;;;;;;;;;;;;;;5044033;28;3301;-53
2024/02/29 16:04:15;;;;;;;;;;;;;;;;;;5045857;28;5000;-51
2024/02/29 16:06:41;;;;;;;;;;;;;;;;;;5041606;28;4740;-50
2024/02/29 16:09:06;;;;;;;;;;;;;;;;;;5041780;28;4767;-52
2024/02/29 16:11:31;;;;;;;;;;;;;;;;;;5040984;28;5161;-49
2024/02/29 16:13:57;;;;;;;;;;;;;;;;;;5064874;28;4602;-50
2024/02/29 16:16:22;;;;;;;;;;;;;;;;;;5043386;28;3451;-51
2024/02/29 16:18:47;;;;;;;;;;;;;;;;;;5049104;28;5244;-54
2024/02/29 16:21:13;;;;;;;;;;;;;;;;;;5048813;28;5007;-53
2024/02/29 16:23:38;;;;;;;;;;;;;;;;;;5043875;28;5239;-53
2024/02/29 16:26:04;;;;;;;;;;;;;;;;;;5046855;28;4951;-52
2024/02/29 16:28:29;;;;;;;;;;;;;;;;;;5048955;28;2867;-53
2024/02/29 16:30:55;;;;;;;;;;;;;;;;;;5046965;28;5018;-52
2024/02/29 16:33:20;;;;;;;;;;;;;;;;;;5039797;28;5188;-53
2024/02/29 16:35:46;;;;;;;;;;;;;;;;;;5029776;28;4910;-50
2024/02/29 16:38:11;;;;;;;;;;;;;;;;;;5051527;28;5612;-52
2024/02/29 16:40:37;;;;;;;;;;;;;;;;;;5057685;28;1605;-50
2024/02/29 16:43:02;;;;;;;;;;;;;;;;;;5049651;28;5171;-51
2024/02/29 16:45:28;;;;;;;;;;;;;;;;;;5068807;28;5012;-53
2024/02/29 16:47:53;;;;;;;;;;;;;;;;;;5046019;28;5076;-54
2024/02/29 16:50:18;;;;;;;;;;;;;;;;;;5054785;28;5327;-54
2024/02/29 16:52:44;;;;;;;;;;;;;;;;;;5044622;28;3297;-61